Time;durP1;ratioP1;P1;durP2;ratioP2;P2;SDS_P1;SDS_P2;PMS_P1;PMS_P2;Temp;Humidity;BMP_temperature;BMP_pressure;BME280_temperature;BME280_humidity;BME280_pressure;Samples;Min_cycle;Max_cycle;Signal;HPM_P1;HPM_P2
2023/09/30 00:01:14;;;;;;;1.13;0.15;;;10.40;99.90;;;;;;5076165;28;20519;-71
2023/09/30 00:03:40;;;;;;;6.00;0.60;;;10.40;99.90;;;;;;5083743;28;20047;-72
2023/09/30 00:06:06;;;;;;;2.42;0.90;;;10.40;99.90;;;;;;5083940;28;20036;-71
2023/09/30 00:08:32;;;;;;;1.48;0.50;;;10.40;99.90;;;;;;5079868;28;20038;-72
2023/09/30 00:10:57;;;;;;;0.73;0.32;;;10.40;99.90;;;;;;5079811;28;20573;-72
2023/09/30 00:13:23;;;;;;;0.98;0.30;;;10.40;99.90;;;;;;5080111;28;20040;-72
2023/09/30 00:15:49;;;;;;;2.72;0.88;;;10.40;99.90;;;;;;5083317;28;20488;-72
2023/09/30 00:18:15;;;;;;;1.55;0.20;;;10.40;99.90;;;;;;5078859;28;20032;-72
2023/09/30 00:20:41;;;;;;;2.78;0.52;;;10.40;99.90;;;;;;5079691;28;20397;-73
2023/09/30 00:23:06;;;;;;;2.50;0.55;;;10.40;99.90;;;;;;5078058;28;20259;-73
2023/09/30 00:25:33;;;;;;;0.85;0.45;;;10.40;99.90;;;;;;5114121;27;20036;-72
2023/09/30 00:27:59;;;;;;;1.48;0.30;;;10.40;99.90;;;;;;5077990;28;20123;-72
2023/09/30 00:30:25;;;;;;;1.08;0.30;;;10.40;99.90;;;;;;5114306;27;20075;-72
2023/09/30 00:32:50;;;;;;;2.60;0.22;;;10.40;99.90;;;;;;5110979;27;20059;-72
2023/09/30 00:35:16;;;;;;;2.05;0.25;;;10.50;99.90;;;;;;5111895;27;20036;-71
2023/09/30 00:37:43;;;;;;;4.57;0.30;;;10.40;99.90;;;;;;5074431;28;20046;-71
2023/09/30 00:40:13;;;;;;;4.45;0.40;;;10.50;99.90;;;;;;5081001;28;20040;-72
2023/09/30 00:42:39;;;;;;;1.55;0.30;;;10.50;99.90;;;;;;5092844;27;20040;-72
2023/09/30 00:45:06;;;;;;;0.70;0.35;;;10.50;99.90;;;;;;5117163;27;20449;-72
2023/09/30 00:47:33;;;;;;;1.50;0.30;;;10.50;99.90;;;;;;5114698;27;20511;-72
2023/09/30 00:50:00;;;;;;;0.70;0.40;;;10.60;99.90;;;;;;5099137;28;20052;-73
2023/09/30 00:52:26;;;;;;;0.95;0.20;;;10.60;99.90;;;;;;5109585;27;20079;-71
2023/09/30 00:54:53;;;;;;;0.80;0.30;;;10.60;99.90;;;;;;5100648;28;20067;-72
2023/09/30 00:57:20;;;;;;;1.38;0.35;;;10.60;99.90;;;;;;5076598;28;20044;-72
2023/09/30 00:59:47;;;;;;;1.90;0.80;;;10.70;99.90;;;;;;5108297;27;20388;-72
2023/09/30 01:02:13;;;;;;;0.30;0.20;;;10.60;99.90;;;;;;5108691;27;20048;-72
2023/09/30 01:04:40;;;;;;;1.98;0.40;;;10.60;99.90;;;;;;5106605;27;20050;-73
2023/09/30 01:07:06;;;;;;;0.95;0.30;;;10.70;99.90;;;;;;5112420;27;20071;-74
2023/09/30 01:09:32;;;;;;;3.30;0.50;;;10.70;99.90;;;;;;5079684;28;20035;-71
2023/09/30 01:11:58;;;;;;;1.13;0.30;;;10.70;99.90;;;;;;5113713;27;20078;-71
2023/09/30 01:14:31;;;;;;;3.28;0.65;;;10.70;99.90;;;;;;5076005;28;20080;-71
2023/09/30 01:16:57;;;;;;;5.55;0.60;;;10.80;99.90;;;;;;5094761;28;20036;-72
2023/09/30 01:19:25;;;;;;;1.40;0.50;;;10.70;99.90;;;;;;5077012;28;20435;-72
2023/09/30 01:22:00;;;;;;;1.95;0.43;;;10.80;99.90;;;;;;5115063;27;20048;-73
2023/09/30 01:24:27;;;;;;;3.85;0.98;;;10.80;99.90;;;;;;5087171;28;20505;-73
2023/09/30 01:26:53;;;;;;;5.32;0.40;;;10.80;99.90;;;;;;5110623;27;20040;-71
2023/09/30 01:29:18;;;;;;;1.20;0.30;;;10.80;99.90;;;;;;5066539;28;20551;-72
2023/09/30 01:31:47;;;;;;;2.30;0.75;;;10.80;99.90;;;;;;5084238;28;20040;-73
2023/09/30 01:34:15;;;;;;;1.58;0.52;;;10.80;99.90;;;;;;5080282;28;20048;-72
2023/09/30 01:36:41;;;;;;;1.90;0.40;;;10.80;99.90;;;;;;5080052;28;20082;-72
2023/09/30 01:39:07;;;;;;;3.70;0.75;;;10.80;99.90;;;;;;5116939;27;20426;-72
2023/09/30 01:41:33;;;;;;;1.30;0.22;;;10.80;99.90;;;;;;5096368;28;20086;-72
2023/09/30 01:43:58;;;;;;;0.73;0.57;;;10.80;99.90;;;;;;5079768;28;20046;-72
2023/09/30 01:46:24;;;;;;;5.68;0.50;;;10.90;99.90;;;;;;5115326;27;20097;-73
2023/09/30 01:48:50;;;;;;;1.23;0.35;;;10.90;99.90;;;;;;5117228;27;20036;-73
2023/09/30 01:51:15;;;;;;;4.47;0.77;;;10.90;99.90;;;;;;5116074;27;20446;-72
2023/09/30 01:53:42;;;;;;;3.30;0.52;;;10.90;99.90;;;;;;5112304;27;20043;-72
2023/09/30 01:56:08;;;;;;;5.47;0.50;;;10.80;99.90;;;;;;5081265;28;20044;-73
2023/09/30 01:58:34;;;;;;;1.77;0.50;;;10.80;99.90;;;;;;5117317;27;20503;-73
2023/09/30 02:01:03;;;;;;;1.70;0.60;;;10.80;99.90;;;;;;5075352;28;20036;-73
2023/09/30 02:03:29;;;;;;;1.23;0.60;;;10.80;99.90;;;;;;5077637;28;20184;-72
2023/09/30 02:05:55;;;;;;;1.70;0.45;;;10.80;99.90;;;;;;5115437;27;20420;-73
2023/09/30 02:08:22;;;;;;;3.15;0.70;;;10.80;99.90;;;;;;5118733;27;20042;-72
2023/09/30 02:10:48;;;;;;;0.40;0.20;;;10.70;99.90;;;;;;5059754;28;20056;-73
2023/09/30 02:13:14;;;;;;;1.52;0.25;;;10.80;99.90;;;;;;5081306;28;20040;-72
2023/09/30 02:15:43;;;;;;;0.65;0.40;;;10.80;99.90;;;;;;5065329;28;20035;-72
2023/09/30 02:18:09;;;;;;;0.85;0.45;;;10.80;99.90;;;;;;5081861;28;20049;-72
2023/09/30 02:20:39;;;;;;;4.68;0.47;;;10.70;99.90;;;;;;5080744;28;20055;-72
2023/09/30 02:23:06;;;;;;;1.67;0.88;;;10.70;99.90;;;;;;5092381;28;20420;-73
2023/09/30 02:25:33;;;;;;;0.80;0.22;;;10.70;99.90;;;;;;5115003;28;20035;-72
2023/09/30 02:28:00;;;;;;;2.58;0.55;;;10.70;99.90;;;;;;5111685;28;20161;-71
2023/09/30 02:30:27;;;;;;;1.73;0.68;;;10.70;99.90;;;;;;5078546;28;20044;-71
2023/09/30 02:32:53;;;;;;;0.65;0.50;;;10.70;99.90;;;;;;5111259;28;20575;-72
2023/09/30 02:35:20;;;;;;;3.17;0.80;;;10.70;99.90;;;;;;5098115;28;20032;-72
2023/09/30 02:37:46;;;;;;;1.63;0.60;;;10.70;99.90;;;;;;5112512;28;20062;-72
2023/09/30 02:40:14;;;;;;;0.50;0.30;;;10.70;99.90;;;;;;5096688;28;20420;-72
2023/09/30 02:42:41;;;;;;;3.45;0.73;;;10.70;99.90;;;;;;5080011;28;20098;-72
2023/09/30 02:45:10;;;;;;;3.80;0.80;;;10.70;99.90;;;;;;5111284;28;20036;-72
2023/09/30 02:47:37;;;;;;;4.88;0.75;;;10.70;99.90;;;;;;5083034;28;20419;-72
2023/09/30 02:50:05;;;;;;;1.60;0.70;;;10.70;99.90;;;;;;5080089;28;20101;-71
2023/09/30 02:52:31;;;;;;;1.13;0.47;;;10.60;99.90;;;;;;5078331;28;20079;-72
2023/09/30 02:54:58;;;;;;;2.13;0.60;;;10.70;99.90;;;;;;5113971;28;20132;-71
2023/09/30 02:57:24;;;;;;;4.38;0.85;;;10.70;99.90;;;;;;5081998;28;20134;-71
2023/09/30 02:59:51;;;;;;;1.55;0.60;;;10.70;99.90;;;;;;5101053;28;20036;-72
2023/09/30 03:02:18;;;;;;;1.02;0.40;;;10.70;99.90;;;;;;5077632;28;20079;-72
2023/09/30 03:04:44;;;;;;;1.25;0.50;;;10.60;99.90;;;;;;5113513;28;20039;-71
2023/09/30 03:07:10;;;;;;;1.58;0.32;;;10.70;99.90;;;;;;5059180;28;20036;-71
2023/09/30 03:09:36;;;;;;;3.40;1.42;;;10.60;99.90;;;;;;5081420;28;20039;-72
2023/09/30 03:12:04;;;;;;;6.22;0.45;;;10.60;99.90;;;;;;5081653;28;20043;-71
2023/09/30 03:14:31;;;;;;;0.95;0.30;;;10.60;99.90;;;;;;5113697;28;20047;-71
2023/09/30 03:16:59;;;;;;;0.77;0.35;;;10.60;99.90;;;;;;5115875;28;20035;-72
2023/09/30 03:19:25;;;;;;;1.80;1.00;;;10.60;99.90;;;;;;5078449;28;20448;-72
2023/09/30 03:21:51;;;;;;;3.13;0.47;;;10.60;99.90;;;;;;5082877;28;20049;-72
2023/09/30 03:24:17;;;;;;;0.93;0.47;;;10.60;99.90;;;;;;5075137;28;20044;-72
2023/09/30 03:26:43;;;;;;;0.95;0.47;;;10.60;99.90;;;;;;5080672;28;20040;-72
2023/09/30 03:29:09;;;;;;;2.33;0.52;;;10.60;99.90;;;;;;5077551;28;20048;-72
2023/09/30 03:31:36;;;;;;;0.95;0.60;;;10.60;99.90;;;;;;5113553;27;20041;-71
2023/09/30 03:34:05;;;;;;;2.15;0.40;;;10.60;99.90;;;;;;5080849;28;20535;-71
2023/09/30 03:36:31;;;;;;;0.50;0.30;;;10.60;99.90;;;;;;5116205;27;20044;-72
2023/09/30 03:39:00;;;;;;;1.05;0.40;;;10.60;99.90;;;;;;5079283;28;20480;-72
2023/09/30 03:41:26;;;;;;;7.40;0.38;;;10.60;99.90;;;;;;5112912;27;20424;-71
2023/09/30 03:43:52;;;;;;;1.48;0.60;;;10.60;99.90;;;;;;5116049;27;20032;-72
2023/09/30 03:46:17;;;;;;;2.25;0.40;;;10.60;99.90;;;;;;5080238;28;20105;-72
2023/09/30 03:48:44;;;;;;;1.30;0.47;;;10.60;99.90;;;;;;5085507;28;20068;-72
2023/09/30 03:51:14;;;;;;;1.92;0.60;;;10.60;99.90;;;;;;5078485;28;20044;-72
2023/09/30 03:53:46;;;;;;;1.60;0.55;;;10.60;99.90;;;;;;5080669;28;20183;-72
2023/09/30 03:56:13;;;;;;;4.07;0.82;;;10.60;99.90;;;;;;5061283;28;20145;-72
2023/09/30 03:58:44;;;;;;;2.00;0.32;;;10.70;99.90;;;;;;5079708;28;20048;-72
2023/09/30 04:01:11;;;;;;;0.98;0.40;;;10.70;99.90;;;;;;5076273;28;20570;-72
2023/09/30 04:03:39;;;;;;;1.40;0.47;;;10.70;99.90;;;;;;5078204;28;20048;-72
2023/09/30 04:06:08;;;;;;;6.53;0.35;;;10.70;99.90;;;;;;5106340;27;20067;-72
2023/09/30 04:08:34;;;;;;;1.00;0.65;;;10.70;99.90;;;;;;5076378;28;20072;-72
2023/09/30 04:11:00;;;;;;;4.68;1.02;;;10.70;99.90;;;;;;5100179;28;20098;-72
2023/09/30 04:13:27;;;;;;;2.80;0.80;;;10.70;99.90;;;;;;5078624;28;20076;-72
2023/09/30 04:15:53;;;;;;;1.17;0.52;;;10.70;99.90;;;;;;5078567;28;20421;-72
2023/09/30 04:18:21;;;;;;;6.57;0.85;;;10.80;99.90;;;;;;5061828;28;20046;-72
2023/09/30 04:20:47;;;;;;;1.77;0.70;;;10.70;99.90;;;;;;5115475;27;20052;-72
2023/09/30 04:23:13;;;;;;;2.83;0.85;;;10.80;99.90;;;;;;5077342;28;20068;-72
2023/09/30 04:25:40;;;;;;;1.02;0.45;;;10.80;99.90;;;;;;5076969;28;20075;-72
2023/09/30 04:28:08;;;;;;;4.68;1.08;;;10.80;99.90;;;;;;5076584;28;20055;-72
2023/09/30 04:30:34;;;;;;;0.57;0.28;;;10.80;99.90;;;;;;5092079;28;20144;-72
2023/09/30 04:33:00;;;;;;;2.22;0.90;;;10.80;99.90;;;;;;5077068;28;20063;-72
2023/09/30 04:35:26;;;;;;;5.55;0.68;;;10.80;99.90;;;;;;5076294;28;20040;-72
2023/09/30 04:37:52;;;;;;;2.85;0.57;;;10.80;99.90;;;;;;5077768;28;20090;-71
2023/09/30 04:40:19;;;;;;;4.63;0.90;;;10.80;99.90;;;;;;5058573;28;20459;-72
2023/09/30 04:42:48;;;;;;;1.08;0.35;;;10.80;99.90;;;;;;5106951;27;20040;-72
2023/09/30 04:45:16;;;;;;;5.35;0.90;;;10.80;99.90;;;;;;5061040;28;20036;-72
2023/09/30 04:47:44;;;;;;;2.90;1.23;;;10.80;99.90;;;;;;5077450;28;20048;-72
2023/09/30 04:50:11;;;;;;;0.75;0.40;;;10.90;99.90;;;;;;5110809;27;20510;-72
2023/09/30 04:52:38;;;;;;;1.55;0.75;;;10.90;99.90;;;;;;5077549;28;20076;-72
2023/09/30 04:55:04;;;;;;;4.28;0.82;;;10.90;99.90;;;;;;5074314;28;20088;-72
2023/09/30 04:57:31;;;;;;;1.75;0.52;;;10.90;99.90;;;;;;5079507;28;20051;-72
2023/09/30 04:59:57;;;;;;;1.55;0.60;;;10.90;99.90;;;;;;5078596;28;20040;-72
2023/09/30 05:02:24;;;;;;;4.22;0.93;;;10.90;99.90;;;;;;5106672;27;20721;-72
2023/09/30 05:04:50;;;;;;;1.98;0.65;;;10.90;99.90;;;;;;5077270;28;20495;-72
2023/09/30 05:07:16;;;;;;;2.92;0.80;;;10.90;99.90;;;;;;5073878;28;20028;-72
2023/09/30 05:09:42;;;;;;;2.63;1.08;;;10.90;99.90;;;;;;5075267;28;20069;-71
2023/09/30 05:12:09;;;;;;;1.45;0.60;;;11.00;99.90;;;;;;5107062;27;20959;-71
2023/09/30 05:14:36;;;;;;;1.70;0.50;;;11.00;99.90;;;;;;5078556;28;20056;-71
2023/09/30 05:17:04;;;;;;;2.28;1.25;;;11.00;99.90;;;;;;5074783;28;20044;-72
2023/09/30 05:19:31;;;;;;;2.67;0.90;;;11.00;99.90;;;;;;5078659;28;20127;-72
2023/09/30 05:21:57;;;;;;;7.00;1.08;;;11.00;99.90;;;;;;5058014;28;20101;-72
2023/09/30 05:24:23;;;;;;;3.92;1.52;;;10.90;99.90;;;;;;5112294;27;20041;-72
2023/09/30 05:26:49;;;;;;;1.70;0.98;;;10.90;99.90;;;;;;5092833;28;20038;-72
2023/09/30 05:29:16;;;;;;;2.90;1.35;;;10.90;99.90;;;;;;5078123;28;20058;-72
2023/09/30 05:31:42;;;;;;;2.22;0.90;;;10.90;99.90;;;;;;5075048;28;20047;-72
2023/09/30 05:34:08;;;;;;;2.15;0.45;;;10.90;99.90;;;;;;5113695;27;20039;-72
2023/09/30 05:36:34;;;;;;;1.83;0.85;;;10.80;99.90;;;;;;5073379;28;20052;-72
2023/09/30 05:39:00;;;;;;;1.73;1.00;;;10.90;99.90;;;;;;5065943;28;20050;-72
2023/09/30 05:41:26;;;;;;;3.38;1.08;;;10.90;99.90;;;;;;5073104;28;20151;-72
2023/09/30 05:43:53;;;;;;;3.42;1.58;;;10.90;99.90;;;;;;5077084;28;20025;-72
2023/09/30 05:46:19;;;;;;;2.03;1.25;;;10.90;99.90;;;;;;5073603;28;20047;-72
2023/09/30 05:48:44;;;;;;;3.83;1.05;;;10.90;99.90;;;;;;5106112;27;20044;-72
2023/09/30 05:51:14;;;;;;;2.05;0.73;;;10.90;99.90;;;;;;5108403;27;20075;-72
2023/09/30 05:53:41;;;;;;;1.77;0.98;;;10.80;99.90;;;;;;5110316;27;20032;-72
2023/09/30 05:56:07;;;;;;;1.95;0.98;;;10.80;99.90;;;;;;5112723;27;20041;-72
2023/09/30 05:58:33;;;;;;;2.15;0.95;;;10.80;99.90;;;;;;5072976;28;20549;-72
2023/09/30 06:01:00;;;;;;;1.73;0.77;;;10.80;99.90;;;;;;5073386;28;20035;-72
2023/09/30 06:03:29;;;;;;;1.60;0.82;;;10.80;99.90;;;;;;5110009;27;20128;-72
2023/09/30 06:05:55;;;;;;;4.45;1.60;;;10.80;99.90;;;;;;5079169;28;20450;-71
2023/09/30 06:08:21;;;;;;;2.35;0.60;;;10.70;99.90;;;;;;5072453;28;20032;-72
2023/09/30 06:10:47;;;;;;;4.05;1.05;;;10.80;99.90;;;;;;5079208;28;20058;-71
2023/09/30 06:13:14;;;;;;;2.33;0.93;;;10.80;99.90;;;;;;5077019;28;20252;-71
2023/09/30 06:15:41;;;;;;;1.17;0.77;;;10.70;99.90;;;;;;5082686;28;20040;-71
2023/09/30 06:18:08;;;;;;;1.55;0.93;;;10.80;99.90;;;;;;5076518;28;20419;-71
2023/09/30 06:20:33;;;;;;;5.53;1.45;;;10.80;99.90;;;;;;5080268;28;20501;-72
2023/09/30 06:23:03;;;;;;;1.55;0.95;;;10.80;99.90;;;;;;5076320;28;20052;-72
2023/09/30 06:25:30;;;;;;;3.78;0.80;;;10.80;99.90;;;;;;5076839;28;20036;-71
2023/09/30 06:27:56;;;;;;;2.38;1.23;;;10.90;99.90;;;;;;5082757;28;20036;-71
2023/09/30 06:30:29;;;;;;;1.35;0.60;;;10.90;99.90;;;;;;5080390;28;20028;-72
2023/09/30 06:32:55;;;;;;;6.15;1.23;;;11.00;99.90;;;;;;5110122;28;20044;-72
2023/09/30 06:35:23;;;;;;;2.58;1.17;;;11.00;99.90;;;;;;5075957;28;20381;-72
2023/09/30 06:37:49;;;;;;;2.20;1.35;;;11.10;99.90;;;;;;5082245;28;20059;-72
2023/09/30 06:40:14;;;;;;;4.07;1.23;;;11.20;99.90;;;;;;5074732;28;20484;-72
2023/09/30 06:42:40;;;;;;;3.25;0.98;;;11.30;99.90;;;;;;5080347;28;20044;-73
2023/09/30 06:45:07;;;;;;;2.95;1.40;;;11.40;99.90;;;;;;5073515;28;20048;-72
2023/09/30 06:47:33;;;;;;;3.67;1.40;;;11.50;99.90;;;;;;5082094;28;20040;-73
2023/09/30 06:50:10;;;;;;;2.58;1.30;;;11.60;99.90;;;;;;5080347;28;20036;-73
2023/09/30 06:52:39;;;;;;;4.10;1.25;;;11.70;99.90;;;;;;5080512;28;20048;-71
2023/09/30 06:55:06;;;;;;;2.90;1.45;;;11.80;99.90;;;;;;5091693;28;20127;-72
2023/09/30 06:57:36;;;;;;;3.25;1.20;;;11.90;99.90;;;;;;5087552;28;20056;-72
2023/09/30 07:00:08;;;;;;;2.47;1.42;;;12.00;99.90;;;;;;5084928;28;20111;-72
2023/09/30 07:02:34;;;;;;;1.80;1.10;;;12.00;99.90;;;;;;5084246;28;20041;-72
2023/09/30 07:05:00;;;;;;;3.25;1.17;;;12.10;99.90;;;;;;5078080;28;20044;-72
2023/09/30 07:07:26;;;;;;;5.55;1.90;;;12.20;99.90;;;;;;5076402;28;20134;-72
2023/09/30 07:09:51;;;;;;;4.20;1.40;;;12.30;99.90;;;;;;5082574;28;20029;-72
2023/09/30 07:12:17;;;;;;;4.90;1.30;;;12.50;99.90;;;;;;5079493;28;20490;-72
2023/09/30 07:14:43;;;;;;;1.83;1.02;;;12.60;99.90;;;;;;5084427;28;20077;-72
2023/09/30 07:17:09;;;;;;;4.20;1.88;;;12.70;99.90;;;;;;5079079;28;20447;-71
2023/09/30 07:19:35;;;;;;;5.05;1.40;;;12.90;99.90;;;;;;5079941;28;20468;-72
2023/09/30 07:22:02;;;;;;;2.13;1.42;;;13.00;99.90;;;;;;5081562;28;20060;-72
2023/09/30 07:24:28;;;;;;;3.55;1.42;;;13.20;99.90;;;;;;5079637;28;20044;-71
2023/09/30 07:26:54;;;;;;;7.10;1.40;;;13.40;99.90;;;;;;5081665;28;20110;-72
2023/09/30 07:29:19;;;;;;;7.90;1.75;;;13.50;99.90;;;;;;5082459;28;20313;-71
2023/09/30 07:31:45;;;;;;;5.95;1.73;;;13.70;99.90;;;;;;5078052;28;20048;-71
2023/09/30 07:34:11;;;;;;;7.22;2.45;;;14.00;99.90;;;;;;5061377;28;20036;-71
2023/09/30 07:36:37;;;;;;;4.00;1.95;;;14.10;99.90;;;;;;5086429;28;20060;-72
2023/09/30 07:39:05;;;;;;;3.70;1.83;;;14.40;99.90;;;;;;5083077;28;20040;-72
2023/09/30 07:41:36;;;;;;;3.97;1.38;;;14.70;99.90;;;;;;5083840;28;20385;-72
2023/09/30 07:44:02;;;;;;;3.33;1.40;;;15.00;99.90;;;;;;5080871;28;20398;-73
2023/09/30 07:46:28;;;;;;;3.03;1.27;;;15.40;99.90;;;;;;5080753;28;20043;-72
2023/09/30 07:48:55;;;;;;;4.65;1.55;;;15.90;99.90;;;;;;5064200;28;20043;-73
2023/09/30 07:51:21;;;;;;;4.40;1.73;;;16.40;99.90;;;;;;5077425;28;20044;-73
2023/09/30 07:53:46;;;;;;;3.15;1.33;;;17.10;99.90;;;;;;5075001;28;20043;-71
2023/09/30 07:56:13;;;;;;;4.35;2.22;;;17.70;99.90;;;;;;5078072;28;20059;-72
2023/09/30 07:58:39;;;;;;;2.17;1.10;;;18.30;99.90;;;;;;5082329;28;20040;-72
2023/09/30 08:01:07;;;;;;;2.50;1.40;;;18.80;99.90;;;;;;5081415;28;20364;-71
2023/09/30 08:03:34;;;;;;;2.53;1.17;;;19.30;99.90;;;;;;5073312;28;20051;-72
2023/09/30 08:06:00;;;;;;;4.30;1.30;;;19.80;99.90;;;;;;5110034;27;20110;-72
2023/09/30 08:08:26;;;;;;;2.47;1.30;;;20.20;99.90;;;;;;5079615;28;20513;-72
2023/09/30 08:10:55;;;;;;;3.22;1.77;;;20.70;99.90;;;;;;5116462;27;20040;-72
2023/09/30 08:13:22;;;;;;;3.13;1.10;;;21.00;99.90;;;;;;5083316;28;20041;-73
2023/09/30 08:15:50;;;;;;;2.60;1.05;;;21.40;99.90;;;;;;5117442;27;20151;-73
2023/09/30 08:18:16;;;;;;;4.22;1.30;;;21.80;99.90;;;;;;5119405;27;20368;-72
2023/09/30 08:20:41;;;;;;;2.75;0.70;;;22.10;99.90;;;;;;5081270;28;20414;-72
2023/09/30 08:23:07;;;;;;;2.25;1.10;;;22.50;99.90;;;;;;5084188;28;20044;-72
2023/09/30 08:25:33;;;;;;;3.72;1.23;;;22.80;99.90;;;;;;5082182;28;20040;-72
2023/09/30 08:27:58;;;;;;;2.28;1.17;;;23.00;99.90;;;;;;5084716;28;20037;-71
2023/09/30 08:30:24;;;;;;;3.15;1.00;;;23.20;99.90;;;;;;5076729;28;20028;-72
2023/09/30 08:32:50;;;;;;;1.67;0.60;;;23.40;99.90;;;;;;5068443;28;20181;-72
2023/09/30 08:35:16;;;;;;;2.97;1.23;;;23.50;99.90;;;;;;5078842;28;20032;-71
2023/09/30 08:37:41;;;;;;;4.85;1.42;;;23.60;99.90;;;;;;5117469;27;20067;-72
2023/09/30 08:40:09;;;;;;;1.88;1.05;;;23.70;99.90;;;;;;5120364;27;20032;-72
2023/09/30 08:42:38;;;;;;;2.08;0.80;;;24.00;99.90;;;;;;5116440;27;20135;-72
2023/09/30 08:45:06;;;;;;;2.25;0.70;;;24.20;99.90;;;;;;5121152;27;20051;-72
2023/09/30 08:47:35;;;;;;;2.55;1.00;;;24.60;99.90;;;;;;5120353;27;20040;-71
2023/09/30 08:50:05;;;;;;;2.03;0.63;;;24.80;99.90;;;;;;5088880;28;20036;-72
2023/09/30 08:52:35;;;;;;;2.45;0.95;;;24.90;99.90;;;;;;5089218;28;20048;-72
2023/09/30 08:55:01;;;;;;;2.90;0.82;;;25.00;99.90;;;;;;5107410;28;20047;-72
2023/09/30 08:57:29;;;;;;;2.92;0.85;;;25.20;99.90;;;;;;5073273;28;20040;-72
2023/09/30 08:59:55;;;;;;;3.83;1.08;;;25.40;99.90;;;;;;5090017;28;20044;-72
2023/09/30 09:02:21;;;;;;;2.80;0.75;;;25.60;99.90;;;;;;5090192;28;20119;-72
2023/09/30 09:04:46;;;;;;;3.33;0.90;;;25.80;99.90;;;;;;5090116;28;20072;-72
2023/09/30 09:07:12;;;;;;;2.03;0.80;;;26.00;99.90;;;;;;5087698;28;20040;-72
2023/09/30 09:09:38;;;;;;;0.50;0.30;;;26.30;99.90;;;;;;5085431;28;20047;-72
2023/09/30 09:12:05;;;;;;;2.35;0.60;;;26.40;99.90;;;;;;5089905;28;20043;-72
2023/09/30 09:14:42;;;;;;;2.95;0.85;;;26.40;99.90;;;;;;5092896;28;20048;-72
2023/09/30 09:17:13;;;;;;;1.67;0.40;;;26.60;99.90;;;;;;5120151;27;20634;-71
2023/09/30 09:19:39;;;;;;;2.00;0.68;;;26.70;99.90;;;;;;5085542;28;20067;-72
2023/09/30 09:22:06;;;;;;;2.55;0.82;;;26.80;99.90;;;;;;5120027;27;20052;-72
2023/09/30 09:24:38;;;;;;;1.02;0.68;;;26.80;99.90;;;;;;5123581;27;20062;-71
2023/09/30 09:27:24;;;;;;;4.95;1.17;;;26.70;99.90;;;;;;5125442;27;20086;-72
2023/09/30 09:29:50;;;;;;;2.15;0.40;;;26.70;99.90;;;;;;5119596;27;20085;-71
2023/09/30 09:32:16;;;;;;;1.48;0.57;;;26.90;99.90;;;;;;5081873;28;20523;-69
2023/09/30 09:34:44;;;;;;;3.67;0.63;;;27.00;99.90;;;;;;5084361;28;20056;-68
2023/09/30 09:37:17;;;;;;;3.13;0.70;;;27.10;99.90;;;;;;5116809;27;20052;-68
2023/09/30 09:39:57;;;;;;;3.05;0.85;;;27.20;99.90;;;;;;5072459;28;20044;-68
2023/09/30 09:42:28;;;;;;;1.98;0.65;;;27.40;99.90;;;;;;5066920;28;20044;-69
2023/09/30 09:45:05;;;;;;;1.40;0.70;;;27.50;99.90;;;;;;5074797;28;20040;-68
2023/09/30 09:47:32;;;;;;;0.88;0.50;;;27.50;99.90;;;;;;5074835;28;20074;-69
2023/09/30 09:49:58;;;;;;;2.80;0.80;;;27.40;99.90;;;;;;5071732;28;20028;-70
2023/09/30 09:52:25;;;;;;;1.30;0.70;;;27.60;99.90;;;;;;5101726;27;20051;-70
2023/09/30 09:54:51;;;;;;;1.60;0.47;;;27.60;99.90;;;;;;5076026;28;20059;-70
2023/09/30 09:57:20;;;;;;;1.52;0.50;;;27.70;99.90;;;;;;5058920;28;20032;-70
2023/09/30 09:59:50;;;;;;;2.00;0.73;;;27.70;99.90;;;;;;5080739;28;20040;-70
2023/09/30 10:02:17;;;;;;;3.83;1.13;;;27.50;99.90;;;;;;5077812;28;20040;-70
2023/09/30 10:04:47;;;;;;;1.75;0.35;;;27.30;99.90;;;;;;5075922;28;20138;-70
2023/09/30 10:07:16;;;;;;;0.73;0.32;;;27.30;99.90;;;;;;5104200;27;20499;-71
2023/09/30 10:09:47;;;;;;;2.28;0.68;;;27.50;99.90;;;;;;5109907;27;20037;-70
2023/09/30 10:12:15;;;;;;;2.15;0.55;;;27.70;99.90;;;;;;5079114;28;20123;-70
2023/09/30 10:14:40;;;;;;;0.60;0.30;;;27.60;95.00;;;;;;5077021;28;20044;-71
2023/09/30 10:17:06;;;;;;;1.83;0.35;;;27.60;99.90;;;;;;5075330;28;20090;-70
2023/09/30 10:19:32;;;;;;;2.40;0.40;;;27.40;98.60;;;;;;5078841;28;20047;-71
2023/09/30 10:22:19;;;;;;;2.40;0.40;;;27.40;99.90;;;;;;5077888;28;20084;-71
2023/09/30 10:24:46;;;;;;;3.65;0.40;;;27.40;91.90;;;;;;5068230;28;20099;-71
2023/09/30 10:27:24;;;;;;;2.40;0.50;;;27.10;94.20;;;;;;5110216;28;20032;-71
2023/09/30 10:30:09;;;;;;;2.17;0.40;;;26.60;98.00;;;;;;5077681;28;20094;-71
2023/09/30 10:32:51;;;;;;;2.47;0.10;;;25.60;95.00;;;;;;5107321;28;20045;-73
2023/09/30 10:35:17;;;;;;;1.10;0.20;;;24.90;98.80;;;;;;5108104;28;20044;-72
2023/09/30 10:37:46;;;;;;;0.93;0.20;;;24.20;98.90;;;;;;5073649;28;20145;-72
2023/09/30 10:40:29;;;;;;;2.05;0.32;;;23.60;98.60;;;;;;5073694;28;20070;-71
2023/09/30 10:42:56;;;;;;;1.02;0.22;;;23.20;99.70;;;;;;5076894;28;20392;-72
2023/09/30 10:45:42;;;;;;;0.77;0.30;;;22.80;99.90;;;;;;5072713;28;20086;-71
2023/09/30 10:48:30;;;;;;;3.63;0.50;;;23.50;99.90;;;;;;5071405;28;20475;-72
2023/09/30 10:51:01;;;;;;;1.00;0.40;;;24.30;99.90;;;;;;5113023;28;20036;-73
2023/09/30 10:53:28;;;;;;;1.40;0.52;;;25.00;99.90;;;;;;5090884;28;20032;-72
2023/09/30 10:55:58;;;;;;;0.75;0.20;;;25.60;99.90;;;;;;5074692;28;20125;-72
2023/09/30 10:58:41;;;;;;;1.75;0.20;;;25.90;98.80;;;;;;5110811;28;20140;-71
2023/09/30 11:01:07;;;;;;;3.20;0.20;;;26.00;96.70;;;;;;5109182;28;20051;-72
2023/09/30 11:03:33;;;;;;;2.30;0.43;;;25.30;99.90;;;;;;5068578;28;20099;-71
2023/09/30 11:05:59;;;;;;;2.22;0.35;;;24.40;99.90;;;;;;5070495;28;20074;-71
2023/09/30 11:08:29;;;;;;;0.77;0.10;;;23.60;99.90;;;;;;5071302;28;20441;-71
2023/09/30 11:10:56;;;;;;;1.00;0.10;;;22.80;99.90;;;;;;5108542;28;20044;-71
2023/09/30 11:13:22;;;;;;;0.65;0.20;;;22.10;99.90;;;;;;5106847;28;20041;-71
2023/09/30 11:16:00;;;;;;;3.85;0.20;;;21.50;99.90;;;;;;5070383;28;20412;-71
2023/09/30 11:18:26;;;;;;;2.55;0.10;;;21.00;99.90;;;;;;5107023;28;20093;-72
2023/09/30 11:21:04;;;;;;;3.75;0.73;;;20.60;99.90;;;;;;5032317;28;1143597;-71
2023/09/30 11:23:30;;;;;;;1.20;0.20;;;20.20;99.90;;;;;;5092875;28;20101;-71
2023/09/30 11:25:56;;;;;;;1.80;0.15;;;20.10;99.90;;;;;;5058839;28;20371;-71
2023/09/30 11:28:25;;;;;;;0.25;0.00;;;20.70;99.90;;;;;;5094071;28;20037;-71
2023/09/30 11:30:59;;;;;;;1.35;0.10;;;21.10;99.90;;;;;;5074909;28;20540;-72
2023/09/30 11:33:25;;;;;;;2.42;0.30;;;21.90;99.90;;;;;;5105134;28;20485;-71
2023/09/30 11:36:03;;;;;;;0.70;0.10;;;22.80;99.90;;;;;;5089380;28;20480;-72
2023/09/30 11:38:30;;;;;;;2.78;0.20;;;23.20;99.90;;;;;;5109737;28;20052;-71
2023/09/30 11:41:06;;;;;;;0.32;0.10;;;22.70;99.90;;;;;;5076393;28;20101;-71
2023/09/30 11:43:33;;;;;;;1.45;0.20;;;22.50;99.90;;;;;;5094629;28;20064;-72
2023/09/30 11:46:05;;;;;;;0.28;0.20;;;23.40;99.90;;;;;;5062792;28;20117;-71
2023/09/30 11:48:31;;;;;;;1.85;0.20;;;24.20;99.90;;;;;;5078922;28;20111;-71
2023/09/30 11:51:01;;;;;;;1.10;0.30;;;24.50;99.90;;;;;;5058481;28;20124;-76
2023/09/30 11:53:31;;;;;;;1.77;0.10;;;25.10;99.90;;;;;;5112514;27;20044;-77
2023/09/30 11:56:02;;;;;;;1.15;0.20;;;25.80;99.90;;;;;;5079076;28;20052;-76
2023/09/30 11:58:29;;;;;;;0.55;0.10;;;26.20;84.10;;;;;;5062622;28;20543;-76
2023/09/30 12:00:57;;;;;;;1.55;0.28;;;26.50;92.10;;;;;;5080712;28;20044;-77
2023/09/30 12:03:24;;;;;;;0.45;0.10;;;26.90;94.70;;;;;;5078888;28;20111;-76
2023/09/30 12:05:49;;;;;;;2.47;0.20;;;27.20;94.40;;;;;;5081812;28;20048;-77
2023/09/30 12:08:15;;;;;;;1.75;0.20;;;27.50;81.00;;;;;;5061891;28;20031;-74
2023/09/30 12:10:41;;;;;;;1.27;0.13;;;27.60;86.40;;;;;;5076604;28;20036;-74
2023/09/30 12:13:07;;;;;;;0.15;0.00;;;27.40;80.00;;;;;;5060256;28;20028;-74
2023/09/30 12:15:32;;;;;;;0.98;0.13;;;26.40;69.90;;;;;;5061884;28;20089;-75
2023/09/30 12:17:58;;;;;;;2.13;0.25;;;25.10;70.60;;;;;;5065640;28;20040;-74
2023/09/30 12:20:25;;;;;;;0.68;0.10;;;24.60;78.40;;;;;;5074426;28;20045;-75
2023/09/30 12:22:52;;;;;;;0.50;0.13;;;24.50;73.80;;;;;;5114640;27;20048;-74
2023/09/30 12:25:21;;;;;;;1.35;0.40;;;25.20;75.20;;;;;;5065953;28;20040;-74
2023/09/30 12:27:47;;;;;;;5.97;0.40;;;25.40;81.10;;;;;;5075655;28;20109;-74
2023/09/30 12:30:13;;;;;;;3.22;0.17;;;25.20;77.20;;;;;;5081812;28;20043;-74
2023/09/30 12:32:40;;;;;;;0.45;0.10;;;25.10;82.20;;;;;;5081649;28;20555;-74
2023/09/30 12:35:06;;;;;;;1.05;0.20;;;25.00;81.80;;;;;;5111995;27;20500;-73
2023/09/30 12:37:32;;;;;;;0.40;0.00;;;24.60;84.20;;;;;;5115221;27;20044;-74
2023/09/30 12:39:58;;;;;;;0.88;0.20;;;23.80;83.80;;;;;;5059221;28;20404;-74
2023/09/30 12:42:24;;;;;;;0.47;0.03;;;23.20;85.10;;;;;;5112153;27;20040;-74
2023/09/30 12:44:50;;;;;;;1.13;0.25;;;22.80;86.60;;;;;;5092368;28;20115;-74
2023/09/30 12:47:16;;;;;;;0.73;0.10;;;22.70;91.60;;;;;;5065076;28;20176;-75
2023/09/30 12:49:41;;;;;;;1.33;0.28;;;22.40;92.20;;;;;;5080511;28;20052;-74